sensor_id;sensor_type;location;lat;lon;timestamp;P1;durP1;ratioP1;P2;durP2;ratioP2
60243;SDS011;46106;51.468;5.814;2023-06-01T00:00:15;7.38;;;4.95;;
60243;SDS011;46106;51.468;5.814;2023-06-01T00:02:41;16.40;;;6.20;;
60243;SDS011;46106;51.468;5.814;2023-06-01T00:05:06;13.30;;;6.25;;
60243;SDS011;46106;51.468;5.814;2023-06-01T00:07:32;13.63;;;5.78;;
60243;SDS011;46106;51.468;5.814;2023-06-01T00:09:58;14.75;;;6.88;;
60243;SDS011;46106;51.468;5.814;2023-06-01T00:12:27;13.07;;;6.50;;
60243;SDS011;46106;51.468;5.814;2023-06-01T00:14:53;14.43;;;6.90;;
60243;SDS011;46106;51.468;5.814;2023-06-01T00:17:18;13.18;;;6.88;;
60243;SDS011;46106;51.468;5.814;2023-06-01T00:19:45;14.75;;;7.45;;
60243;SDS011;46106;51.468;5.814;2023-06-01T00:22:11;13.18;;;7.50;;
60243;SDS011;46106;51.468;5.814;2023-06-01T00:24:36;13.57;;;6.93;;
60243;SDS011;46106;51.468;5.814;2023-06-01T00:27:02;15.45;;;7.30;;
60243;SDS011;46106;51.468;5.814;2023-06-01T00:29:29;14.45;;;7.70;;
60243;SDS011;46106;51.468;5.814;2023-06-01T00:31:55;11.98;;;7.75;;
60243;SDS011;46106;51.468;5.814;2023-06-01T00:34:20;16.38;;;7.85;;
60243;SDS011;46106;51.468;5.814;2023-06-01T00:36:46;14.50;;;7.85;;
60243;SDS011;46106;51.468;5.814;2023-06-01T00:39:12;12.68;;;8.68;;
60243;SDS011;46106;51.468;5.814;2023-06-01T00:41:37;18.65;;;7.95;;
60243;SDS011;46106;51.468;5.814;2023-06-01T00:44:03;13.27;;;7.60;;
60243;SDS011;46106;51.468;5.814;2023-06-01T00:46:29;10.75;;;7.45;;
60243;SDS011;46106;51.468;5.814;2023-06-01T00:48:56;13.48;;;8.10;;
60243;SDS011;46106;51.468;5.814;2023-06-01T00:51:21;12.95;;;7.97;;
60243;SDS011;46106;51.468;5.814;2023-06-01T00:53:47;16.88;;;7.88;;
60243;SDS011;46106;51.468;5.814;2023-06-01T00:56:13;15.35;;;8.30;;
60243;SDS011;46106;51.468;5.814;2023-06-01T00:58:39;14.27;;;8.60;;
60243;SDS011;46106;51.468;5.814;2023-06-01T01:01:06;15.98;;;9.13;;
60243;SDS011;46106;51.468;5.814;2023-06-01T01:03:33;18.27;;;7.95;;
60243;SDS011;46106;51.468;5.814;2023-06-01T01:09:35;19.67;;;8.57;;
60243;SDS011;46106;51.468;5.814;2023-06-01T01:11:34;20.05;;;9.30;;
60243;SDS011;46106;51.468;5.814;2023-06-01T01:14:23;12.95;;;8.30;;
60243;SDS011;46106;51.468;5.814;2023-06-01T01:16:57;15.88;;;8.15;;
60243;SDS011;46106;51.468;5.814;2023-06-01T01:22:19;21.35;;;8.63;;
60243;SDS011;46106;51.468;5.814;2023-06-01T01:25:08;9.93;;;7.90;;
60243;SDS011;46106;51.468;5.814;2023-06-01T01:30:40;21.83;;;9.65;;
60243;SDS011;46106;51.468;5.814;2023-06-01T01:33:07;13.65;;;8.38;;
60243;SDS011;46106;51.468;5.814;2023-06-01T01:35:35;17.65;;;9.18;;
60243;SDS011;46106;51.468;5.814;2023-06-01T01:38:02;15.65;;;9.05;;
60243;SDS011;46106;51.468;5.814;2023-06-01T01:40:27;16.65;;;9.07;;
60243;SDS011;46106;51.468;5.814;2023-06-01T01:42:54;17.70;;;9.70;;
60243;SDS011;46106;51.468;5.814;2023-06-01T01:45:20;15.70;;;9.43;;
60243;SDS011;46106;51.468;5.814;2023-06-01T01:51:01;16.40;;;9.18;;
60243;SDS011;46106;51.468;5.814;2023-06-01T01:53:32;19.80;;;8.77;;
60243;SDS011;46106;51.468;5.814;2023-06-01T01:56:00;15.38;;;9.30;;
60243;SDS011;46106;51.468;5.814;2023-06-01T01:58:27;12.98;;;8.65;;
60243;SDS011;46106;51.468;5.814;2023-06-01T02:00:53;17.55;;;8.60;;
60243;SDS011;46106;51.468;5.814;2023-06-01T02:03:19;18.48;;;8.68;;
60243;SDS011;46106;51.468;5.814;2023-06-01T02:05:44;20.00;;;9.38;;
60243;SDS011;46106;51.468;5.814;2023-06-01T02:08:09;17.80;;;8.70;;
60243;SDS011;46106;51.468;5.814;2023-06-01T02:10:36;16.35;;;8.30;;
60243;SDS011;46106;51.468;5.814;2023-06-01T02:13:02;19.23;;;8.65;;
60243;SDS011;46106;51.468;5.814;2023-06-01T02:15:28;17.20;;;9.30;;
60243;SDS011;46106;51.468;5.814;2023-06-01T02:17:54;17.55;;;8.02;;
60243;SDS011;46106;51.468;5.814;2023-06-01T02:20:19;19.92;;;9.00;;
60243;SDS011;46106;51.468;5.814;2023-06-01T02:22:45;17.52;;;8.27;;
60243;SDS011;46106;51.468;5.814;2023-06-01T02:25:11;16.33;;;7.57;;
60243;SDS011;46106;51.468;5.814;2023-06-01T02:27:36;16.77;;;8.35;;
60243;SDS011;46106;51.468;5.814;2023-06-01T02:30:02;17.40;;;8.07;;
60243;SDS011;46106;51.468;5.814;2023-06-01T02:32:28;15.02;;;7.57;;
60243;SDS011;46106;51.468;5.814;2023-06-01T02:34:55;13.32;;;8.02;;
60243;SDS011;46106;51.468;5.814;2023-06-01T02:37:21;13.27;;;8.00;;
60243;SDS011;46106;51.468;5.814;2023-06-01T02:39:47;18.52;;;7.78;;
60243;SDS011;46106;51.468;5.814;2023-06-01T02:42:13;13.80;;;7.65;;
60243;SDS011;46106;51.468;5.814;2023-06-01T02:44:38;14.48;;;8.10;;
60243;SDS011;46106;51.468;5.814;2023-06-01T02:47:04;21.83;;;9.13;;
60243;SDS011;46106;51.468;5.814;2023-06-01T02:49:30;16.95;;;8.90;;
60243;SDS011;46106;51.468;5.814;2023-06-01T02:51:56;15.00;;;7.72;;
60243;SDS011;46106;51.468;5.814;2023-06-01T02:54:21;11.18;;;7.20;;
60243;SDS011;46106;51.468;5.814;2023-06-01T02:56:47;13.32;;;7.72;;
60243;SDS011;46106;51.468;5.814;2023-06-01T02:59:12;14.65;;;8.07;;
60243;SDS011;46106;51.468;5.814;2023-06-01T03:01:37;12.82;;;7.88;;
60243;SDS011;46106;51.468;5.814;2023-06-01T03:04:03;12.00;;;6.90;;
60243;SDS011;46106;51.468;5.814;2023-06-01T03:06:29;16.23;;;7.65;;
60243;SDS011;46106;51.468;5.814;2023-06-01T03:09:05;14.60;;;7.85;;
60243;SDS011;46106;51.468;5.814;2023-06-01T03:11:39;15.10;;;7.88;;
60243;SDS011;46106;51.468;5.814;2023-06-01T03:14:05;14.10;;;7.22;;
60243;SDS011;46106;51.468;5.814;2023-06-01T03:16:31;12.98;;;6.93;;
60243;SDS011;46106;51.468;5.814;2023-06-01T03:18:56;20.52;;;7.10;;
60243;SDS011;46106;51.468;5.814;2023-06-01T03:21:22;10.10;;;7.13;;
60243;SDS011;46106;51.468;5.814;2023-06-01T03:23:47;17.83;;;7.47;;
60243;SDS011;46106;51.468;5.814;2023-06-01T03:26:13;12.52;;;7.03;;
60243;SDS011;46106;51.468;5.814;2023-06-01T03:28:39;13.70;;;7.28;;
60243;SDS011;46106;51.468;5.814;2023-06-01T03:31:04;14.82;;;7.78;;
60243;SDS011;46106;51.468;5.814;2023-06-01T03:33:31;15.77;;;8.18;;
60243;SDS011;46106;51.468;5.814;2023-06-01T03:35:56;12.98;;;7.00;;
60243;SDS011;46106;51.468;5.814;2023-06-01T03:38:22;15.18;;;7.38;;
60243;SDS011;46106;51.468;5.814;2023-06-01T03:40:48;15.80;;;7.80;;
60243;SDS011;46106;51.468;5.814;2023-06-01T03:43:13;21.42;;;7.90;;
60243;SDS011;46106;51.468;5.814;2023-06-01T03:45:39;12.88;;;7.47;;
60243;SDS011;46106;51.468;5.814;2023-06-01T03:48:04;16.88;;;7.38;;
60243;SDS011;46106;51.468;5.814;2023-06-01T03:50:30;12.43;;;6.50;;
60243;SDS011;46106;51.468;5.814;2023-06-01T03:52:55;15.93;;;7.57;;
60243;SDS011;46106;51.468;5.814;2023-06-01T03:55:21;10.77;;;6.80;;
60243;SDS011;46106;51.468;5.814;2023-06-01T03:57:47;10.43;;;6.97;;
60243;SDS011;46106;51.468;5.814;2023-06-01T04:00:13;16.70;;;7.88;;
60243;SDS011;46106;51.468;5.814;2023-06-01T04:02:49;12.43;;;7.68;;
60243;SDS011;46106;51.468;5.814;2023-06-01T04:05:20;14.57;;;7.30;;
60243;SDS011;46106;51.468;5.814;2023-06-01T04:07:46;18.88;;;7.97;;
60243;SDS011;46106;51.468;5.814;2023-06-01T04:10:13;13.68;;;7.63;;
60243;SDS011;46106;51.468;5.814;2023-06-01T04:12:46;18.48;;;8.02;;
60243;SDS011;46106;51.468;5.814;2023-06-01T04:15:14;9.75;;;7.47;;
60243;SDS011;46106;51.468;5.814;2023-06-01T04:17:41;11.82;;;7.47;;
60243;SDS011;46106;51.468;5.814;2023-06-01T04:20:11;14.40;;;8.60;;
60243;SDS011;46106;51.468;5.814;2023-06-01T04:22:38;15.10;;;7.78;;
60243;SDS011;46106;51.468;5.814;2023-06-01T04:25:08;11.85;;;7.55;;
60243;SDS011;46106;51.468;5.814;2023-06-01T04:27:36;11.50;;;8.00;;
60243;SDS011;46106;51.468;5.814;2023-06-01T04:30:03;11.27;;;7.10;;
60243;SDS011;46106;51.468;5.814;2023-06-01T04:32:33;12.55;;;8.02;;
60243;SDS011;46106;51.468;5.814;2023-06-01T04:35:00;12.38;;;7.20;;
60243;SDS011;46106;51.468;5.814;2023-06-01T04:37:30;13.70;;;7.43;;
60243;SDS011;46106;51.468;5.814;2023-06-01T04:39:59;9.77;;;7.25;;
60243;SDS011;46106;51.468;5.814;2023-06-01T04:42:25;9.93;;;7.07;;
60243;SDS011;46106;51.468;5.814;2023-06-01T04:44:51;13.68;;;7.72;;
60243;SDS011;46106;51.468;5.814;2023-06-01T04:47:16;12.23;;;7.47;;
60243;SDS011;46106;51.468;5.814;2023-06-01T04:49:42;10.07;;;7.40;;
60243;SDS011;46106;51.468;5.814;2023-06-01T04:52:08;8.20;;;7.32;;
60243;SDS011;46106;51.468;5.814;2023-06-01T04:54:37;11.70;;;7.32;;
60243;SDS011;46106;51.468;5.814;2023-06-01T04:57:03;13.48;;;7.93;;
60243;SDS011;46106;51.468;5.814;2023-06-01T04:59:31;13.48;;;8.55;;
60243;SDS011;46106;51.468;5.814;2023-06-01T05:01:57;17.05;;;8.15;;
60243;SDS011;46106;51.468;5.814;2023-06-01T05:04:23;16.42;;;7.47;;
60243;SDS011;46106;51.468;5.814;2023-06-01T05:06:49;10.68;;;7.22;;
60243;SDS011;46106;51.468;5.814;2023-06-01T05:09:14;16.73;;;7.90;;
60243;SDS011;46106;51.468;5.814;2023-06-01T05:11:40;22.85;;;9.20;;
60243;SDS011;46106;51.468;5.814;2023-06-01T05:14:06;14.52;;;7.55;;
60243;SDS011;46106;51.468;5.814;2023-06-01T05:16:31;16.02;;;7.95;;
60243;SDS011;46106;51.468;5.814;2023-06-01T05:18:57;19.73;;;8.93;;
60243;SDS011;46106;51.468;5.814;2023-06-01T05:21:22;11.52;;;7.20;;
60243;SDS011;46106;51.468;5.814;2023-06-01T05:23:48;13.07;;;6.80;;
60243;SDS011;46106;51.468;5.814;2023-06-01T05:26:13;14.68;;;7.07;;
60243;SDS011;46106;51.468;5.814;2023-06-01T05:28:39;16.27;;;7.20;;
60243;SDS011;46106;51.468;5.814;2023-06-01T05:31:04;15.85;;;7.47;;
60243;SDS011;46106;51.468;5.814;2023-06-01T05:33:30;14.27;;;7.15;;
60243;SDS011;46106;51.468;5.814;2023-06-01T05:35:56;14.13;;;7.45;;
60243;SDS011;46106;51.468;5.814;2023-06-01T05:38:23;16.33;;;7.35;;
60243;SDS011;46106;51.468;5.814;2023-06-01T05:40:48;11.05;;;7.05;;
60243;SDS011;46106;51.468;5.814;2023-06-01T05:43:14;20.55;;;6.43;;
60243;SDS011;46106;51.468;5.814;2023-06-01T05:45:40;10.45;;;6.18;;
60243;SDS011;46106;51.468;5.814;2023-06-01T05:48:06;9.18;;;6.32;;
60243;SDS011;46106;51.468;5.814;2023-06-01T05:50:31;11.75;;;6.95;;
60243;SDS011;46106;51.468;5.814;2023-06-01T05:52:57;12.13;;;6.80;;
60243;SDS011;46106;51.468;5.814;2023-06-01T05:55:22;11.93;;;6.32;;
60243;SDS011;46106;51.468;5.814;2023-06-01T05:57:48;13.65;;;7.25;;
60243;SDS011;46106;51.468;5.814;2023-06-01T06:00:13;10.60;;;6.72;;
60243;SDS011;46106;51.468;5.814;2023-06-01T06:02:41;18.33;;;7.25;;
60243;SDS011;46106;51.468;5.814;2023-06-01T06:05:09;11.32;;;6.40;;
60243;SDS011;46106;51.468;5.814;2023-06-01T06:07:35;12.63;;;7.15;;
60243;SDS011;46106;51.468;5.814;2023-06-01T06:10:01;12.15;;;6.35;;
60243;SDS011;46106;51.468;5.814;2023-06-01T06:12:27;11.75;;;6.43;;
60243;SDS011;46106;51.468;5.814;2023-06-01T06:14:53;10.95;;;6.15;;
60243;SDS011;46106;51.468;5.814;2023-06-01T06:17:19;17.38;;;6.88;;
60243;SDS011;46106;51.468;5.814;2023-06-01T06:19:44;16.33;;;6.57;;
60243;SDS011;46106;51.468;5.814;2023-06-01T06:22:10;10.63;;;5.75;;
60243;SDS011;46106;51.468;5.814;2023-06-01T06:24:36;12.32;;;6.30;;
60243;SDS011;46106;51.468;5.814;2023-06-01T06:27:01;14.20;;;7.05;;
60243;SDS011;46106;51.468;5.814;2023-06-01T06:29:27;17.10;;;6.88;;
60243;SDS011;46106;51.468;5.814;2023-06-01T06:31:52;15.45;;;6.13;;
60243;SDS011;46106;51.468;5.814;2023-06-01T06:34:18;15.43;;;7.18;;
60243;SDS011;46106;51.468;5.814;2023-06-01T06:36:43;10.93;;;5.70;;
60243;SDS011;46106;51.468;5.814;2023-06-01T06:39:09;13.13;;;6.38;;
60243;SDS011;46106;51.468;5.814;2023-06-01T06:41:35;12.07;;;6.85;;
60243;SDS011;46106;51.468;5.814;2023-06-01T06:44:01;19.20;;;8.02;;
60243;SDS011;46106;51.468;5.814;2023-06-01T06:46:27;15.30;;;6.85;;
60243;SDS011;46106;51.468;5.814;2023-06-01T06:48:52;17.63;;;6.97;;
60243;SDS011;46106;51.468;5.814;2023-06-01T06:51:17;35.42;;;8.95;;
60243;SDS011;46106;51.468;5.814;2023-06-01T06:53:43;12.43;;;6.35;;
60243;SDS011;46106;51.468;5.814;2023-06-01T06:56:08;18.35;;;6.82;;
60243;SDS011;46106;51.468;5.814;2023-06-01T06:58:34;13.18;;;6.97;;
60243;SDS011;46106;51.468;5.814;2023-06-01T07:00:59;14.30;;;6.40;;
60243;SDS011;46106;51.468;5.814;2023-06-01T07:03:30;12.13;;;7.28;;
60243;SDS011;46106;51.468;5.814;2023-06-01T07:05:57;17.08;;;6.72;;
60243;SDS011;46106;51.468;5.814;2023-06-01T07:08:22;12.25;;;6.28;;
60243;SDS011;46106;51.468;5.814;2023-06-01T07:10:48;16.48;;;6.35;;
60243;SDS011;46106;51.468;5.814;2023-06-01T07:13:13;11.27;;;6.43;;
60243;SDS011;46106;51.468;5.814;2023-06-01T07:15:39;12.27;;;6.63;;
60243;SDS011;46106;51.468;5.814;2023-06-01T07:18:05;12.95;;;6.28;;
60243;SDS011;46106;51.468;5.814;2023-06-01T07:20:31;14.30;;;5.88;;
60243;SDS011;46106;51.468;5.814;2023-06-01T07:22:57;13.00;;;5.55;;
60243;SDS011;46106;51.468;5.814;2023-06-01T07:25:22;15.75;;;6.60;;
60243;SDS011;46106;51.468;5.814;2023-06-01T07:27:48;11.30;;;6.80;;
60243;SDS011;46106;51.468;5.814;2023-06-01T07:30:14;13.25;;;6.18;;
60243;SDS011;46106;51.468;5.814;2023-06-01T07:32:40;10.00;;;6.40;;
60243;SDS011;46106;51.468;5.814;2023-06-01T07:35:06;14.15;;;6.18;;
60243;SDS011;46106;51.468;5.814;2023-06-01T07:37:33;10.38;;;6.00;;
60243;SDS011;46106;51.468;5.814;2023-06-01T07:39:58;11.30;;;6.45;;
60243;SDS011;46106;51.468;5.814;2023-06-01T07:42:24;7.97;;;5.20;;
60243;SDS011;46106;51.468;5.814;2023-06-01T07:44:49;11.82;;;5.75;;
60243;SDS011;46106;51.468;5.814;2023-06-01T07:47:15;10.43;;;5.80;;
60243;SDS011;46106;51.468;5.814;2023-06-01T07:49:41;13.40;;;5.80;;
60243;SDS011;46106;51.468;5.814;2023-06-01T07:52:06;11.95;;;5.38;;
60243;SDS011;46106;51.468;5.814;2023-06-01T07:54:35;10.98;;;5.55;;
60243;SDS011;46106;51.468;5.814;2023-06-01T07:57:04;16.77;;;5.93;;
60243;SDS011;46106;51.468;5.814;2023-06-01T07:59:30;9.50;;;5.47;;
60243;SDS011;46106;51.468;5.814;2023-06-01T08:01:56;8.75;;;5.38;;
60243;SDS011;46106;51.468;5.814;2023-06-01T08:04:22;10.65;;;5.50;;
60243;SDS011;46106;51.468;5.814;2023-06-01T08:06:49;13.18;;;5.53;;
60243;SDS011;46106;51.468;5.814;2023-06-01T08:09:18;10.38;;;5.35;;
60243;SDS011;46106;51.468;5.814;2023-06-01T08:11:45;9.57;;;5.30;;
60243;SDS011;46106;51.468;5.814;2023-06-01T08:14:10;13.40;;;5.65;;
60243;SDS011;46106;51.468;5.814;2023-06-01T08:16:36;10.93;;;5.47;;
60243;SDS011;46106;51.468;5.814;2023-06-01T08:19:01;9.73;;;5.78;;
60243;SDS011;46106;51.468;5.814;2023-06-01T08:21:28;17.63;;;6.60;;
60243;SDS011;46106;51.468;5.814;2023-06-01T08:23:53;16.30;;;6.10;;
60243;SDS011;46106;51.468;5.814;2023-06-01T08:26:22;12.63;;;6.00;;
60243;SDS011;46106;51.468;5.814;2023-06-01T08:28:48;8.52;;;5.53;;
60243;SDS011;46106;51.468;5.814;2023-06-01T08:31:21;12.30;;;6.57;;
60243;SDS011;46106;51.468;5.814;2023-06-01T08:33:48;10.48;;;5.25;;
60243;SDS011;46106;51.468;5.814;2023-06-01T08:36:15;13.95;;;6.43;;
60243;SDS011;46106;51.468;5.814;2023-06-01T08:38:41;10.85;;;5.90;;
60243;SDS011;46106;51.468;5.814;2023-06-01T08:41:20;8.57;;;5.50;;
60243;SDS011;46106;51.468;5.814;2023-06-01T08:43:52;11.23;;;6.55;;
60243;SDS011;46106;51.468;5.814;2023-06-01T08:46:20;10.65;;;6.38;;
60243;SDS011;46106;51.468;5.814;2023-06-01T08:48:47;13.57;;;6.45;;
60243;SDS011;46106;51.468;5.814;2023-06-01T08:51:18;14.27;;;6.57;;
60243;SDS011;46106;51.468;5.814;2023-06-01T08:53:44;13.77;;;6.30;;
60243;SDS011;46106;51.468;5.814;2023-06-01T08:56:13;15.88;;;6.70;;
60243;SDS011;46106;51.468;5.814;2023-06-01T08:58:39;11.43;;;6.45;;
60243;SDS011;46106;51.468;5.814;2023-06-01T09:01:06;12.55;;;6.38;;
60243;SDS011;46106;51.468;5.814;2023-06-01T09:03:32;13.60;;;6.55;;
60243;SDS011;46106;51.468;5.814;2023-06-01T09:05:57;13.30;;;6.80;;
60243;SDS011;46106;51.468;5.814;2023-06-01T09:08:23;17.33;;;7.63;;
60243;SDS011;46106;51.468;5.814;2023-06-01T09:10:49;15.35;;;6.70;;
60243;SDS011;46106;51.468;5.814;2023-06-01T09:13:30;12.90;;;6.20;;
60243;SDS011;46106;51.468;5.814;2023-06-01T09:15:56;11.02;;;7.10;;
60243;SDS011;46106;51.468;5.814;2023-06-01T09:18:22;17.50;;;7.07;;
60243;SDS011;46106;51.468;5.814;2023-06-01T09:20:47;11.70;;;7.45;;
60243;SDS011;46106;51.468;5.814;2023-06-01T09:23:26;18.17;;;7.15;;
60243;SDS011;46106;51.468;5.814;2023-06-01T09:26:04;12.93;;;6.95;;
60243;SDS011;46106;51.468;5.814;2023-06-01T09:34:09;16.20;;;7.85;;
60243;SDS011;46106;51.468;5.814;2023-06-01T09:36:45;12.35;;;7.55;;
60243;SDS011;46106;51.468;5.814;2023-06-01T09:39:15;17.50;;;6.45;;
60243;SDS011;46106;51.468;5.814;2023-06-01T09:47:08;13.98;;;7.43;;
60243;SDS011;46106;51.468;5.814;2023-06-01T09:49:38;9.20;;;6.43;;
60243;SDS011;46106;51.468;5.814;2023-06-01T09:54:31;9.13;;;6.57;;
60243;SDS011;46106;51.468;5.814;2023-06-01T09:56:58;11.57;;;6.28;;
60243;SDS011;46106;51.468;5.814;2023-06-01T09:59:26;13.93;;;6.40;;
60243;SDS011;46106;51.468;5.814;2023-06-01T10:01:56;10.88;;;6.13;;
60243;SDS011;46106;51.468;5.814;2023-06-01T10:04:28;12.63;;;5.63;;
60243;SDS011;46106;51.468;5.814;2023-06-01T10:06:55;11.27;;;7.20;;
60243;SDS011;46106;51.468;5.814;2023-06-01T10:09:22;9.75;;;7.00;;
60243;SDS011;46106;51.468;5.814;2023-06-01T10:11:53;10.10;;;6.60;;
60243;SDS011;46106;51.468;5.814;2023-06-01T10:14:20;11.32;;;6.40;;
60243;SDS011;46106;51.468;5.814;2023-06-01T10:16:48;12.18;;;6.65;;
60243;SDS011;46106;51.468;5.814;2023-06-01T10:19:15;16.10;;;7.35;;
60243;SDS011;46106;51.468;5.814;2023-06-01T10:21:41;14.77;;;7.57;;
60243;SDS011;46106;51.468;5.814;2023-06-01T10:24:09;10.20;;;7.25;;
60243;SDS011;46106;51.468;5.814;2023-06-01T10:29:48;10.82;;;7.25;;
60243;SDS011;46106;51.468;5.814;2023-06-01T10:35:02;14.80;;;7.28;;
60243;SDS011;46106;51.468;5.814;2023-06-01T10:37:28;14.60;;;7.82;;
60243;SDS011;46106;51.468;5.814;2023-06-01T10:40:06;15.88;;;7.22;;
60243;SDS011;46106;51.468;5.814;2023-06-01T10:42:44;13.00;;;7.60;;
60243;SDS011;46106;51.468;5.814;2023-06-01T10:48:05;17.17;;;7.82;;
60243;SDS011;46106;51.468;5.814;2023-06-01T10:50:33;14.10;;;7.30;;
60243;SDS011;46106;51.468;5.814;2023-06-01T10:53:46;14.15;;;7.95;;
60243;SDS011;46106;51.468;5.814;2023-06-01T10:56:17;15.50;;;8.13;;
60243;SDS011;46106;51.468;5.814;2023-06-01T10:58:45;16.88;;;7.63;;
60243;SDS011;46106;51.468;5.814;2023-06-01T11:01:11;14.57;;;8.07;;
60243;SDS011;46106;51.468;5.814;2023-06-01T11:03:45;12.55;;;7.15;;
60243;SDS011;46106;51.468;5.814;2023-06-01T11:09:10;15.50;;;8.25;;
60243;SDS011;46106;51.468;5.814;2023-06-01T11:14:17;13.95;;;7.47;;
60243;SDS011;46106;51.468;5.814;2023-06-01T11:16:46;16.50;;;7.72;;
60243;SDS011;46106;51.468;5.814;2023-06-01T11:19:18;15.73;;;8.27;;
60243;SDS011;46106;51.468;5.814;2023-06-01T11:21:57;11.45;;;8.05;;
60243;SDS011;46106;51.468;5.814;2023-06-01T11:24:33;15.38;;;8.02;;
60243;SDS011;46106;51.468;5.814;2023-06-01T11:27:01;13.77;;;8.52;;
60243;SDS011;46106;51.468;5.814;2023-06-01T11:29:32;16.00;;;8.25;;
60243;SDS011;46106;51.468;5.814;2023-06-01T11:32:02;14.50;;;7.90;;
60243;SDS011;46106;51.468;5.814;2023-06-01T11:37:14;16.60;;;7.07;;
60243;SDS011;46106;51.468;5.814;2023-06-01T11:39:39;12.68;;;7.32;;
60243;SDS011;46106;51.468;5.814;2023-06-01T11:42:15;14.93;;;7.00;;
60243;SDS011;46106;51.468;5.814;2023-06-01T11:44:43;16.02;;;8.30;;
60243;SDS011;46106;51.468;5.814;2023-06-01T11:47:10;14.32;;;7.05;;
60243;SDS011;46106;51.468;5.814;2023-06-01T11:49:41;12.50;;;7.55;;
60243;SDS011;46106;51.468;5.814;2023-06-01T11:52:12;13.30;;;7.10;;
60243;SDS011;46106;51.468;5.814;2023-06-01T11:54:38;14.25;;;7.35;;
60243;SDS011;46106;51.468;5.814;2023-06-01T11:57:04;13.07;;;6.65;;
60243;SDS011;46106;51.468;5.814;2023-06-01T12:02:15;12.38;;;7.90;;
60243;SDS011;46106;51.468;5.814;2023-06-01T12:04:41;16.75;;;7.65;;
60243;SDS011;46106;51.468;5.814;2023-06-01T12:07:06;15.73;;;7.70;;
60243;SDS011;46106;51.468;5.814;2023-06-01T12:09:33;12.63;;;6.90;;
60243;SDS011;46106;51.468;5.814;2023-06-01T12:11:59;11.95;;;7.43;;
60243;SDS011;46106;51.468;5.814;2023-06-01T12:14:25;12.13;;;6.70;;
60243;SDS011;46106;51.468;5.814;2023-06-01T12:16:51;13.98;;;6.75;;
60243;SDS011;46106;51.468;5.814;2023-06-01T12:21:49;20.38;;;7.28;;
60243;SDS011;46106;51.468;5.814;2023-06-01T12:24:16;11.65;;;6.57;;
60243;SDS011;46106;51.468;5.814;2023-06-01T12:26:43;11.35;;;7.00;;
60243;SDS011;46106;51.468;5.814;2023-06-01T12:29:08;12.88;;;6.28;;
60243;SDS011;46106;51.468;5.814;2023-06-01T12:31:34;10.02;;;5.80;;
60243;SDS011;46106;51.468;5.814;2023-06-01T12:33:59;14.88;;;6.20;;
60243;SDS011;46106;51.468;5.814;2023-06-01T12:36:29;10.57;;;5.97;;
60243;SDS011;46106;51.468;5.814;2023-06-01T12:38:59;13.15;;;6.35;;
60243;SDS011;46106;51.468;5.814;2023-06-01T12:41:27;16.65;;;6.38;;
60243;SDS011;46106;51.468;5.814;2023-06-01T12:43:54;10.48;;;6.18;;
60243;SDS011;46106;51.468;5.814;2023-06-01T12:46:20;14.57;;;6.07;;
60243;SDS011;46106;51.468;5.814;2023-06-01T12:48:48;10.50;;;5.60;;
60243;SDS011;46106;51.468;5.814;2023-06-01T12:51:14;9.45;;;5.43;;
60243;SDS011;46106;51.468;5.814;2023-06-01T12:53:40;8.52;;;5.03;;
60243;SDS011;46106;51.468;5.814;2023-06-01T12:56:10;9.52;;;5.45;;
60243;SDS011;46106;51.468;5.814;2023-06-01T12:58:37;9.43;;;5.55;;
60243;SDS011;46106;51.468;5.814;2023-06-01T13:01:03;10.15;;;5.20;;
60243;SDS011;46106;51.468;5.814;2023-06-01T13:03:28;10.82;;;5.60;;
60243;SDS011;46106;51.468;5.814;2023-06-01T13:05:54;12.02;;;5.53;;
60243;SDS011;46106;51.468;5.814;2023-06-01T13:08:20;10.85;;;5.65;;
60243;SDS011;46106;51.468;5.814;2023-06-01T13:10:47;12.75;;;6.05;;
60243;SDS011;46106;51.468;5.814;2023-06-01T13:13:13;12.68;;;5.10;;
60243;SDS011;46106;51.468;5.814;2023-06-01T13:15:42;14.30;;;5.22;;
60243;SDS011;46106;51.468;5.814;2023-06-01T13:18:08;11.40;;;5.13;;
60243;SDS011;46106;51.468;5.814;2023-06-01T13:20:34;12.90;;;5.47;;
60243;SDS011;46106;51.468;5.814;2023-06-01T13:23:04;8.98;;;4.63;;
60243;SDS011;46106;51.468;5.814;2023-06-01T13:25:29;9.13;;;5.03;;
60243;SDS011;46106;51.468;5.814;2023-06-01T13:27:55;9.50;;;4.80;;
60243;SDS011;46106;51.468;5.814;2023-06-01T13:30:21;10.88;;;4.35;;
60243;SDS011;46106;51.468;5.814;2023-06-01T13:32:47;9.82;;;3.83;;
60243;SDS011;46106;51.468;5.814;2023-06-01T13:35:13;9.00;;;4.22;;
60243;SDS011;46106;51.468;5.814;2023-06-01T13:37:38;9.93;;;5.13;;
60243;SDS011;46106;51.468;5.814;2023-06-01T13:40:06;10.18;;;4.28;;
60243;SDS011;46106;51.468;5.814;2023-06-01T13:42:32;8.38;;;3.90;;
60243;SDS011;46106;51.468;5.814;2023-06-01T13:44:58;8.68;;;4.47;;
60243;SDS011;46106;51.468;5.814;2023-06-01T13:47:23;8.30;;;4.43;;
60243;SDS011;46106;51.468;5.814;2023-06-01T13:49:50;12.32;;;4.32;;
60243;SDS011;46106;51.468;5.814;2023-06-01T13:52:15;9.43;;;4.30;;
60243;SDS011;46106;51.468;5.814;2023-06-01T13:54:41;11.10;;;5.22;;
60243;SDS011;46106;51.468;5.814;2023-06-01T13:57:07;8.05;;;3.80;;
60243;SDS011;46106;51.468;5.814;2023-06-01T13:59:32;10.77;;;5.05;;
60243;SDS011;46106;51.468;5.814;2023-06-01T14:02:01;11.02;;;4.70;;
60243;SDS011;46106;51.468;5.814;2023-06-01T14:04:30;12.30;;;4.60;;
60243;SDS011;46106;51.468;5.814;2023-06-01T14:06:56;9.00;;;4.15;;
60243;SDS011;46106;51.468;5.814;2023-06-01T14:09:22;8.60;;;4.43;;
60243;SDS011;46106;51.468;5.814;2023-06-01T14:11:48;11.13;;;4.75;;
60243;SDS011;46106;51.468;5.814;2023-06-01T14:14:14;14.13;;;4.78;;
60243;SDS011;46106;51.468;5.814;2023-06-01T14:16:40;11.80;;;4.10;;
60243;SDS011;46106;51.468;5.814;2023-06-01T14:19:06;9.32;;;5.13;;
60243;SDS011;46106;51.468;5.814;2023-06-01T14:21:31;12.10;;;4.57;;
60243;SDS011;46106;51.468;5.814;2023-06-01T14:24:00;12.45;;;5.72;;
60243;SDS011;46106;51.468;5.814;2023-06-01T14:26:26;8.23;;;5.03;;
60243;SDS011;46106;51.468;5.814;2023-06-01T14:28:52;11.73;;;5.03;;
60243;SDS011;46106;51.468;5.814;2023-06-01T14:31:18;10.52;;;5.25;;
60243;SDS011;46106;51.468;5.814;2023-06-01T14:33:47;14.35;;;5.47;;
60243;SDS011;46106;51.468;5.814;2023-06-01T14:36:13;10.32;;;5.43;;
60243;SDS011;46106;51.468;5.814;2023-06-01T14:38:39;11.68;;;5.00;;
60243;SDS011;46106;51.468;5.814;2023-06-01T14:41:05;11.07;;;5.70;;
60243;SDS011;46106;51.468;5.814;2023-06-01T14:43:30;13.68;;;5.45;;
60243;SDS011;46106;51.468;5.814;2023-06-01T14:45:56;9.25;;;4.68;;
60243;SDS011;46106;51.468;5.814;2023-06-01T14:48:22;24.27;;;5.32;;
60243;SDS011;46106;51.468;5.814;2023-06-01T14:50:48;12.32;;;5.68;;
60243;SDS011;46106;51.468;5.814;2023-06-01T14:53:13;13.63;;;5.40;;
60243;SDS011;46106;51.468;5.814;2023-06-01T14:55:39;10.90;;;5.90;;
60243;SDS011;46106;51.468;5.814;2023-06-01T14:58:06;13.70;;;6.25;;
60243;SDS011;46106;51.468;5.814;2023-06-01T15:00:32;11.70;;;4.93;;
60243;SDS011;46106;51.468;5.814;2023-06-01T15:02:58;15.73;;;5.60;;
60243;SDS011;46106;51.468;5.814;2023-06-01T15:05:23;7.03;;;4.95;;
60243;SDS011;46106;51.468;5.814;2023-06-01T15:07:49;11.70;;;5.22;;
60243;SDS011;46106;51.468;5.814;2023-06-01T15:10:14;9.40;;;4.85;;
60243;SDS011;46106;51.468;5.814;2023-06-01T15:12:40;12.48;;;4.80;;
60243;SDS011;46106;51.468;5.814;2023-06-01T15:15:05;8.10;;;4.63;;
60243;SDS011;46106;51.468;5.814;2023-06-01T15:17:31;9.40;;;4.35;;
60243;SDS011;46106;51.468;5.814;2023-06-01T15:19:56;10.35;;;3.80;;
60243;SDS011;46106;51.468;5.814;2023-06-01T15:22:22;10.60;;;4.13;;